sensor_id;sensor_type;location;lat;lon;timestamp;temperature;humidity
2929;DHT22;1474;51.460;7.150;2022-07-05T00:01:03;17.70;96.60
2929;DHT22;1474;51.460;7.150;2022-07-05T00:03:29;17.60;96.70
2929;DHT22;1474;51.460;7.150;2022-07-05T00:05:56;17.60;96.70
2929;DHT22;1474;51.460;7.150;2022-07-05T00:08:21;17.50;96.90
2929;DHT22;1474;51.460;7.150;2022-07-05T00:10:47;17.50;97.00
2929;DHT22;1474;51.460;7.150;2022-07-05T00:13:13;17.50;97.10
2929;DHT22;1474;51.460;7.150;2022-07-05T00:15:39;17.50;97.20
2929;DHT22;1474;51.460;7.150;2022-07-05T00:18:06;17.40;97.30
2929;DHT22;1474;51.460;7.150;2022-07-05T00:20:32;17.40;97.30
2929;DHT22;1474;51.460;7.150;2022-07-05T00:22:57;17.40;97.40
2929;DHT22;1474;51.460;7.150;2022-07-05T00:25:23;17.30;97.40
2929;DHT22;1474;51.460;7.150;2022-07-05T00:27:49;17.30;97.60
2929;DHT22;1474;51.460;7.150;2022-07-05T00:30:14;17.20;97.70
2929;DHT22;1474;51.460;7.150;2022-07-05T00:32:40;17.30;97.80
2929;DHT22;1474;51.460;7.150;2022-07-05T00:35:07;17.20;98.00
2929;DHT22;1474;51.460;7.150;2022-07-05T00:37:33;17.20;98.20
2929;DHT22;1474;51.460;7.150;2022-07-05T00:39:59;17.10;98.40
2929;DHT22;1474;51.460;7.150;2022-07-05T00:42:24;17.10;98.60
2929;DHT22;1474;51.460;7.150;2022-07-05T00:44:50;17.10;98.80
2929;DHT22;1474;51.460;7.150;2022-07-05T00:47:16;17.10;99.00
2929;DHT22;1474;51.460;7.150;2022-07-05T00:49:42;17.00;99.10
2929;DHT22;1474;51.460;7.150;2022-07-05T00:52:10;17.00;99.30
2929;DHT22;1474;51.460;7.150;2022-07-05T00:54:38;16.90;99.40
2929;DHT22;1474;51.460;7.150;2022-07-05T00:57:04;16.90;99.50
2929;DHT22;1474;51.460;7.150;2022-07-05T00:59:31;16.90;99.90
2929;DHT22;1474;51.460;7.150;2022-07-05T01:01:57;16.80;99.90
2929;DHT22;1474;51.460;7.150;2022-07-05T01:04:23;16.80;99.90
2929;DHT22;1474;51.460;7.150;2022-07-05T01:06:50;16.80;99.90
2929;DHT22;1474;51.460;7.150;2022-07-05T01:09:18;16.70;99.90
2929;DHT22;1474;51.460;7.150;2022-07-05T01:11:46;16.70;99.90
2929;DHT22;1474;51.460;7.150;2022-07-05T01:14:13;16.70;99.90
2929;DHT22;1474;51.460;7.150;2022-07-05T01:16:41;16.60;99.90
2929;DHT22;1474;51.460;7.150;2022-07-05T01:19:07;16.60;99.90
2929;DHT22;1474;51.460;7.150;2022-07-05T01:21:40;16.70;99.90
2929;DHT22;1474;51.460;7.150;2022-07-05T01:24:10;16.60;99.90
2929;DHT22;1474;51.460;7.150;2022-07-05T01:26:38;16.60;99.90
2929;DHT22;1474;51.460;7.150;2022-07-05T01:29:04;16.60;99.90
2929;DHT22;1474;51.460;7.150;2022-07-05T01:31:30;16.60;99.90
2929;DHT22;1474;51.460;7.150;2022-07-05T01:33:57;16.60;99.90
2929;DHT22;1474;51.460;7.150;2022-07-05T01:36:23;16.50;99.90
2929;DHT22;1474;51.460;7.150;2022-07-05T01:38:49;16.50;99.90
2929;DHT22;1474;51.460;7.150;2022-07-05T01:41:15;16.50;99.90
2929;DHT22;1474;51.460;7.150;2022-07-05T01:43:41;16.50;99.90
2929;DHT22;1474;51.460;7.150;2022-07-05T01:46:08;16.50;99.90
2929;DHT22;1474;51.460;7.150;2022-07-05T01:48:35;16.50;99.90
2929;DHT22;1474;51.460;7.150;2022-07-05T01:51:18;16.50;99.90
2929;DHT22;1474;51.460;7.150;2022-07-05T01:53:46;16.50;99.90
2929;DHT22;1474;51.460;7.150;2022-07-05T01:56:13;16.50;99.90
2929;DHT22;1474;51.460;7.150;2022-07-05T01:58:39;16.40;99.90
2929;DHT22;1474;51.460;7.150;2022-07-05T02:01:05;16.40;99.90
2929;DHT22;1474;51.460;7.150;2022-07-05T02:03:31;16.40;99.90
2929;DHT22;1474;51.460;7.150;2022-07-05T02:05:56;16.40;99.90
2929;DHT22;1474;51.460;7.150;2022-07-05T02:08:29;16.40;99.90
2929;DHT22;1474;51.460;7.150;2022-07-05T02:10:55;16.30;99.90
2929;DHT22;1474;51.460;7.150;2022-07-05T02:13:21;16.30;99.90
2929;DHT22;1474;51.460;7.150;2022-07-05T02:15:47;16.30;99.90
2929;DHT22;1474;51.460;7.150;2022-07-05T02:18:13;16.30;99.90
2929;DHT22;1474;51.460;7.150;2022-07-05T02:20:40;16.30;99.90
2929;DHT22;1474;51.460;7.150;2022-07-05T02:23:07;16.30;99.90
2929;DHT22;1474;51.460;7.150;2022-07-05T02:25:33;16.20;99.90
2929;DHT22;1474;51.460;7.150;2022-07-05T02:28:02;16.20;99.90
2929;DHT22;1474;51.460;7.150;2022-07-05T02:30:28;16.20;99.90
2929;DHT22;1474;51.460;7.150;2022-07-05T02:32:54;16.10;99.90
2929;DHT22;1474;51.460;7.150;2022-07-05T02:35:19;16.20;99.90
2929;DHT22;1474;51.460;7.150;2022-07-05T02:37:45;16.10;99.90
2929;DHT22;1474;51.460;7.150;2022-07-05T02:40:12;16.10;99.90
2929;DHT22;1474;51.460;7.150;2022-07-05T02:42:39;16.10;99.90
2929;DHT22;1474;51.460;7.150;2022-07-05T02:45:06;16.10;99.90
2929;DHT22;1474;51.460;7.150;2022-07-05T02:47:33;16.10;99.90
2929;DHT22;1474;51.460;7.150;2022-07-05T02:50:03;16.00;99.90
2929;DHT22;1474;51.460;7.150;2022-07-05T02:52:29;16.10;99.90
2929;DHT22;1474;51.460;7.150;2022-07-05T02:54:55;16.00;99.90
2929;DHT22;1474;51.460;7.150;2022-07-05T02:57:20;16.00;99.90
2929;DHT22;1474;51.460;7.150;2022-07-05T02:59:46;16.00;99.90
2929;DHT22;1474;51.460;7.150;2022-07-05T03:02:12;16.00;99.90
2929;DHT22;1474;51.460;7.150;2022-07-05T03:04:38;16.00;99.90
2929;DHT22;1474;51.460;7.150;2022-07-05T03:07:03;15.90;99.90
2929;DHT22;1474;51.460;7.150;2022-07-05T03:09:29;15.90;99.90
2929;DHT22;1474;51.460;7.150;2022-07-05T03:11:55;15.90;99.90
2929;DHT22;1474;51.460;7.150;2022-07-05T03:14:20;16.00;99.90
2929;DHT22;1474;51.460;7.150;2022-07-05T03:16:46;15.90;99.90
2929;DHT22;1474;51.460;7.150;2022-07-05T03:19:12;15.90;99.90
2929;DHT22;1474;51.460;7.150;2022-07-05T03:21:38;15.90;99.90
2929;DHT22;1474;51.460;7.150;2022-07-05T03:24:04;15.90;99.90
2929;DHT22;1474;51.460;7.150;2022-07-05T03:26:29;15.90;99.90
2929;DHT22;1474;51.460;7.150;2022-07-05T03:28:55;15.80;99.90
2929;DHT22;1474;51.460;7.150;2022-07-05T03:31:21;15.80;99.90
2929;DHT22;1474;51.460;7.150;2022-07-05T03:33:46;15.80;99.90
2929;DHT22;1474;51.460;7.150;2022-07-05T03:36:12;15.90;99.90
2929;DHT22;1474;51.460;7.150;2022-07-05T03:38:38;15.90;99.90
2929;DHT22;1474;51.460;7.150;2022-07-05T03:41:03;15.80;99.90
2929;DHT22;1474;51.460;7.150;2022-07-05T03:43:29;15.80;99.90
2929;DHT22;1474;51.460;7.150;2022-07-05T03:45:55;15.80;99.90
2929;DHT22;1474;51.460;7.150;2022-07-05T03:48:21;15.80;99.90
2929;DHT22;1474;51.460;7.150;2022-07-05T03:50:47;15.80;99.90
2929;DHT22;1474;51.460;7.150;2022-07-05T03:53:13;15.80;99.90
2929;DHT22;1474;51.460;7.150;2022-07-05T03:55:39;15.80;99.90
2929;DHT22;1474;51.460;7.150;2022-07-05T03:58:05;15.80;99.90
2929;DHT22;1474;51.460;7.150;2022-07-05T04:00:31;15.80;99.90
2929;DHT22;1474;51.460;7.150;2022-07-05T04:02:57;15.80;99.90
2929;DHT22;1474;51.460;7.150;2022-07-05T04:05:23;15.70;99.90
2929;DHT22;1474;51.460;7.150;2022-07-05T04:07:54;15.70;99.90
2929;DHT22;1474;51.460;7.150;2022-07-05T04:10:20;15.70;99.90
2929;DHT22;1474;51.460;7.150;2022-07-05T04:12:46;15.80;99.90
2929;DHT22;1474;51.460;7.150;2022-07-05T04:15:13;15.80;99.90
2929;DHT22;1474;51.460;7.150;2022-07-05T04:17:53;15.80;99.90
2929;DHT22;1474;51.460;7.150;2022-07-05T04:20:20;15.80;99.90
2929;DHT22;1474;51.460;7.150;2022-07-05T04:22:50;15.80;99.90
2929;DHT22;1474;51.460;7.150;2022-07-05T04:25:17;15.80;99.90
2929;DHT22;1474;51.460;7.150;2022-07-05T04:27:51;15.70;99.90
2929;DHT22;1474;51.460;7.150;2022-07-05T04:30:18;15.80;99.90
2929;DHT22;1474;51.460;7.150;2022-07-05T04:32:44;15.80;99.90
2929;DHT22;1474;51.460;7.150;2022-07-05T04:35:10;15.70;99.90
2929;DHT22;1474;51.460;7.150;2022-07-05T04:37:37;15.70;99.90
2929;DHT22;1474;51.460;7.150;2022-07-05T04:40:04;15.70;99.90
2929;DHT22;1474;51.460;7.150;2022-07-05T04:42:30;15.80;99.90
2929;DHT22;1474;51.460;7.150;2022-07-05T04:44:56;15.80;99.90
2929;DHT22;1474;51.460;7.150;2022-07-05T04:47:22;15.70;99.90
2929;DHT22;1474;51.460;7.150;2022-07-05T04:49:48;15.60;99.90
2929;DHT22;1474;51.460;7.150;2022-07-05T04:52:13;15.70;99.90
2929;DHT22;1474;51.460;7.150;2022-07-05T04:54:39;15.70;99.90
2929;DHT22;1474;51.460;7.150;2022-07-05T04:57:04;15.80;99.90
2929;DHT22;1474;51.460;7.150;2022-07-05T04:59:30;15.80;99.90
2929;DHT22;1474;51.460;7.150;2022-07-05T05:01:56;15.90;99.90
2929;DHT22;1474;51.460;7.150;2022-07-05T05:04:21;15.90;99.90
2929;DHT22;1474;51.460;7.150;2022-07-05T05:06:47;16.00;99.90
2929;DHT22;1474;51.460;7.150;2022-07-05T05:09:13;16.10;99.90
2929;DHT22;1474;51.460;7.150;2022-07-05T05:11:38;16.10;99.90
2929;DHT22;1474;51.460;7.150;2022-07-05T05:14:04;16.20;99.90
2929;DHT22;1474;51.460;7.150;2022-07-05T05:16:30;16.30;99.90
2929;DHT22;1474;51.460;7.150;2022-07-05T05:18:56;16.30;99.90
2929;DHT22;1474;51.460;7.150;2022-07-05T05:21:22;16.40;99.90
2929;DHT22;1474;51.460;7.150;2022-07-05T05:23:47;16.50;99.90
2929;DHT22;1474;51.460;7.150;2022-07-05T05:26:13;16.50;99.90
2929;DHT22;1474;51.460;7.150;2022-07-05T05:28:39;16.50;99.90
2929;DHT22;1474;51.460;7.150;2022-07-05T05:31:05;16.60;99.90
2929;DHT22;1474;51.460;7.150;2022-07-05T05:33:30;16.60;99.90
2929;DHT22;1474;51.460;7.150;2022-07-05T05:35:56;16.60;99.90
2929;DHT22;1474;51.460;7.150;2022-07-05T05:38:22;16.50;99.90
2929;DHT22;1474;51.460;7.150;2022-07-05T05:40:47;16.60;99.90
2929;DHT22;1474;51.460;7.150;2022-07-05T05:43:13;16.70;99.90
2929;DHT22;1474;51.460;7.150;2022-07-05T05:45:39;16.80;99.90
2929;DHT22;1474;51.460;7.150;2022-07-05T05:48:05;16.90;99.90
2929;DHT22;1474;51.460;7.150;2022-07-05T05:50:35;17.00;99.90
2929;DHT22;1474;51.460;7.150;2022-07-05T05:53:01;17.00;99.90
2929;DHT22;1474;51.460;7.150;2022-07-05T05:55:29;17.10;99.90
2929;DHT22;1474;51.460;7.150;2022-07-05T05:57:55;17.20;99.90
2929;DHT22;1474;51.460;7.150;2022-07-05T06:00:22;17.30;99.90
2929;DHT22;1474;51.460;7.150;2022-07-05T06:02:51;17.50;99.90
2929;DHT22;1474;51.460;7.150;2022-07-05T06:05:17;17.60;99.90
2929;DHT22;1474;51.460;7.150;2022-07-05T06:10:18;17.90;99.90
2929;DHT22;1474;51.460;7.150;2022-07-05T06:12:44;17.90;99.90
2929;DHT22;1474;51.460;7.150;2022-07-05T06:15:10;18.00;99.90
2929;DHT22;1474;51.460;7.150;2022-07-05T06:17:38;18.10;99.90
2929;DHT22;1474;51.460;7.150;2022-07-05T06:20:28;18.20;99.90
2929;DHT22;1474;51.460;7.150;2022-07-05T06:22:55;18.30;99.90
2929;DHT22;1474;51.460;7.150;2022-07-05T06:25:40;18.20;99.90
2929;DHT22;1474;51.460;7.150;2022-07-05T06:28:07;18.30;99.90
2929;DHT22;1474;51.460;7.150;2022-07-05T06:30:35;18.30;99.90
2929;DHT22;1474;51.460;7.150;2022-07-05T06:33:01;18.30;99.90
2929;DHT22;1474;51.460;7.150;2022-07-05T06:35:27;18.40;99.90
2929;DHT22;1474;51.460;7.150;2022-07-05T06:38:07;18.50;99.90
2929;DHT22;1474;51.460;7.150;2022-07-05T06:40:38;18.50;99.70
2929;DHT22;1474;51.460;7.150;2022-07-05T06:43:06;18.50;99.90
2929;DHT22;1474;51.460;7.150;2022-07-05T06:45:32;18.60;99.90
2929;DHT22;1474;51.460;7.150;2022-07-05T06:48:00;18.70;99.60
2929;DHT22;1474;51.460;7.150;2022-07-05T06:50:28;18.90;99.90
2929;DHT22;1474;51.460;7.150;2022-07-05T06:52:54;19.00;98.80
2929;DHT22;1474;51.460;7.150;2022-07-05T06:55:21;19.00;98.90
2929;DHT22;1474;51.460;7.150;2022-07-05T06:57:47;19.10;98.60
2929;DHT22;1474;51.460;7.150;2022-07-05T07:00:14;19.10;99.30
2929;DHT22;1474;51.460;7.150;2022-07-05T07:02:40;19.20;98.10
2929;DHT22;1474;51.460;7.150;2022-07-05T07:05:07;19.20;98.60
2929;DHT22;1474;51.460;7.150;2022-07-05T07:07:33;19.30;98.50
2929;DHT22;1474;51.460;7.150;2022-07-05T07:10:17;19.40;97.70
2929;DHT22;1474;51.460;7.150;2022-07-05T07:12:43;19.40;97.90
2929;DHT22;1474;51.460;7.150;2022-07-05T07:15:09;19.50;98.10
2929;DHT22;1474;51.460;7.150;2022-07-05T07:17:35;19.50;98.20
2929;DHT22;1474;51.460;7.150;2022-07-05T07:20:00;19.60;99.10
2929;DHT22;1474;51.460;7.150;2022-07-05T07:22:26;19.60;98.50
2929;DHT22;1474;51.460;7.150;2022-07-05T07:24:53;19.70;98.10
2929;DHT22;1474;51.460;7.150;2022-07-05T07:27:19;19.70;99.20
2929;DHT22;1474;51.460;7.150;2022-07-05T07:29:44;19.70;97.20
2929;DHT22;1474;51.460;7.150;2022-07-05T07:32:10;19.80;97.20
2929;DHT22;1474;51.460;7.150;2022-07-05T07:34:37;19.80;97.60
2929;DHT22;1474;51.460;7.150;2022-07-05T07:37:03;19.90;96.50
2929;DHT22;1474;51.460;7.150;2022-07-05T07:39:29;19.90;97.20
2929;DHT22;1474;51.460;7.150;2022-07-05T07:41:57;19.90;96.40
2929;DHT22;1474;51.460;7.150;2022-07-05T07:44:23;19.90;96.30
2929;DHT22;1474;51.460;7.150;2022-07-05T07:46:49;20.00;96.80
2929;DHT22;1474;51.460;7.150;2022-07-05T07:49:14;20.10;96.80
2929;DHT22;1474;51.460;7.150;2022-07-05T07:51:40;20.10;98.00
2929;DHT22;1474;51.460;7.150;2022-07-05T07:54:06;20.30;96.60
2929;DHT22;1474;51.460;7.150;2022-07-05T07:56:32;20.30;95.80
2929;DHT22;1474;51.460;7.150;2022-07-05T07:58:58;20.30;96.70
2929;DHT22;1474;51.460;7.150;2022-07-05T08:01:23;20.40;96.40
2929;DHT22;1474;51.460;7.150;2022-07-05T08:03:49;20.50;95.70
2929;DHT22;1474;51.460;7.150;2022-07-05T08:06:15;20.70;95.50
2929;DHT22;1474;51.460;7.150;2022-07-05T08:08:42;20.70;96.00
2929;DHT22;1474;51.460;7.150;2022-07-05T08:11:11;20.80;96.20
2929;DHT22;1474;51.460;7.150;2022-07-05T08:13:37;21.10;96.80
2929;DHT22;1474;51.460;7.150;2022-07-05T08:16:04;21.20;94.70
2929;DHT22;1474;51.460;7.150;2022-07-05T08:18:30;21.50;95.60
2929;DHT22;1474;51.460;7.150;2022-07-05T08:21:15;21.50;94.10
2929;DHT22;1474;51.460;7.150;2022-07-05T08:26:28;21.30;94.20
2929;DHT22;1474;51.460;7.150;2022-07-05T08:28:56;21.30;93.80
2929;DHT22;1474;51.460;7.150;2022-07-05T08:31:24;21.40;94.70
2929;DHT22;1474;51.460;7.150;2022-07-05T08:33:50;21.40;94.10
2929;DHT22;1474;51.460;7.150;2022-07-05T08:36:16;21.60;94.70
2929;DHT22;1474;51.460;7.150;2022-07-05T08:38:42;21.70;93.80
2929;DHT22;1474;51.460;7.150;2022-07-05T08:41:09;21.80;92.60
2929;DHT22;1474;51.460;7.150;2022-07-05T08:43:37;21.90;93.00
2929;DHT22;1474;51.460;7.150;2022-07-05T08:46:05;22.00;92.60
2929;DHT22;1474;51.460;7.150;2022-07-05T08:48:36;22.00;93.00
2929;DHT22;1474;51.460;7.150;2022-07-05T08:51:11;21.80;92.10
2929;DHT22;1474;51.460;7.150;2022-07-05T08:53:39;21.60;92.80
2929;DHT22;1474;51.460;7.150;2022-07-05T08:56:08;21.50;92.40
2929;DHT22;1474;51.460;7.150;2022-07-05T08:58:35;21.40;92.90
2929;DHT22;1474;51.460;7.150;2022-07-05T09:01:01;21.30;93.10
2929;DHT22;1474;51.460;7.150;2022-07-05T09:03:37;21.20;93.80
2929;DHT22;1474;51.460;7.150;2022-07-05T09:06:06;21.20;93.60
2929;DHT22;1474;51.460;7.150;2022-07-05T09:08:36;21.30;93.70
2929;DHT22;1474;51.460;7.150;2022-07-05T09:11:07;21.30;93.50
2929;DHT22;1474;51.460;7.150;2022-07-05T09:13:38;21.30;94.10
2929;DHT22;1474;51.460;7.150;2022-07-05T09:16:04;21.30;93.50
2929;DHT22;1474;51.460;7.150;2022-07-05T09:23:39;21.80;93.40
2929;DHT22;1474;51.460;7.150;2022-07-05T09:26:05;22.10;94.50
2929;DHT22;1474;51.460;7.150;2022-07-05T09:28:30;22.40;93.70
2929;DHT22;1474;51.460;7.150;2022-07-05T09:30:56;22.70;91.90
2929;DHT22;1474;51.460;7.150;2022-07-05T09:33:25;23.00;92.00
2929;DHT22;1474;51.460;7.150;2022-07-05T09:35:53;23.30;92.90
2929;DHT22;1474;51.460;7.150;2022-07-05T09:38:27;23.60;90.10
2929;DHT22;1474;51.460;7.150;2022-07-05T09:40:57;23.60;90.10
2929;DHT22;1474;51.460;7.150;2022-07-05T09:43:28;23.60;89.10
2929;DHT22;1474;51.460;7.150;2022-07-05T09:48:21;23.50;90.40
2929;DHT22;1474;51.460;7.150;2022-07-05T09:50:49;23.50;88.70
2929;DHT22;1474;51.460;7.150;2022-07-05T09:53:19;23.40;89.90
2929;DHT22;1474;51.460;7.150;2022-07-05T09:56:11;23.40;91.20
2929;DHT22;1474;51.460;7.150;2022-07-05T09:58:38;23.80;90.40
2929;DHT22;1474;51.460;7.150;2022-07-05T10:01:31;24.10;88.70
2929;DHT22;1474;51.460;7.150;2022-07-05T10:04:00;24.30;83.90
2929;DHT22;1474;51.460;7.150;2022-07-05T10:06:32;24.60;83.60
2929;DHT22;1474;51.460;7.150;2022-07-05T10:08:59;24.90;82.60
2929;DHT22;1474;51.460;7.150;2022-07-05T10:11:24;24.90;83.60
2929;DHT22;1474;51.460;7.150;2022-07-05T10:13:52;24.60;83.90
2929;DHT22;1474;51.460;7.150;2022-07-05T10:16:22;24.10;82.70
2929;DHT22;1474;51.460;7.150;2022-07-05T10:18:50;23.70;83.70
2929;DHT22;1474;51.460;7.150;2022-07-05T10:21:17;23.40;85.10
2929;DHT22;1474;51.460;7.150;2022-07-05T10:23:45;23.30;83.20
2929;DHT22;1474;51.460;7.150;2022-07-05T10:26:13;23.60;83.00
2929;DHT22;1474;51.460;7.150;2022-07-05T10:28:46;24.10;85.80
2929;DHT22;1474;51.460;7.150;2022-07-05T10:31:14;24.20;82.70
2929;DHT22;1474;51.460;7.150;2022-07-05T10:33:41;23.80;83.20
2929;DHT22;1474;51.460;7.150;2022-07-05T10:36:07;23.50;82.20
2929;DHT22;1474;51.460;7.150;2022-07-05T10:38:41;23.30;82.30
2929;DHT22;1474;51.460;7.150;2022-07-05T10:41:11;23.30;82.80
2929;DHT22;1474;51.460;7.150;2022-07-05T10:43:37;23.20;81.30
2929;DHT22;1474;51.460;7.150;2022-07-05T10:46:03;23.40;82.20
2929;DHT22;1474;51.460;7.150;2022-07-05T10:48:33;23.70;82.70
2929;DHT22;1474;51.460;7.150;2022-07-05T10:58:40;24.70;78.80
2929;DHT22;1474;51.460;7.150;2022-07-05T11:03:39;23.80;79.60
2929;DHT22;1474;51.460;7.150;2022-07-05T11:06:06;23.50;78.40
2929;DHT22;1474;51.460;7.150;2022-07-05T11:11:33;23.20;81.20
2929;DHT22;1474;51.460;7.150;2022-07-05T11:14:00;23.10;79.90
2929;DHT22;1474;51.460;7.150;2022-07-05T11:16:31;23.20;78.90
2929;DHT22;1474;51.460;7.150;2022-07-05T11:19:10;23.50;80.90
2929;DHT22;1474;51.460;7.150;2022-07-05T11:21:38;23.90;77.10
2929;DHT22;1474;51.460;7.150;2022-07-05T11:24:25;24.50;77.50
2929;DHT22;1474;51.460;7.150;2022-07-05T11:26:58;24.90;77.60
2929;DHT22;1474;51.460;7.150;2022-07-05T11:32:20;25.00;76.40
2929;DHT22;1474;51.460;7.150;2022-07-05T11:34:51;24.70;76.10
2929;DHT22;1474;51.460;7.150;2022-07-05T11:37:17;24.20;77.30
2929;DHT22;1474;51.460;7.150;2022-07-05T11:39:45;24.00;79.40
2929;DHT22;1474;51.460;7.150;2022-07-05T11:42:21;23.80;78.80
2929;DHT22;1474;51.460;7.150;2022-07-05T11:44:50;23.90;79.80
2929;DHT22;1474;51.460;7.150;2022-07-05T11:47:19;24.10;79.10
2929;DHT22;1474;51.460;7.150;2022-07-05T11:49:57;24.10;79.40
2929;DHT22;1474;51.460;7.150;2022-07-05T11:52:31;23.80;80.30
2929;DHT22;1474;51.460;7.150;2022-07-05T11:54:58;23.90;80.90
2929;DHT22;1474;51.460;7.150;2022-07-05T11:57:24;24.00;78.30
2929;DHT22;1474;51.460;7.150;2022-07-05T11:59:51;24.20;80.80
2929;DHT22;1474;51.460;7.150;2022-07-05T12:02:17;24.20;79.80
2929;DHT22;1474;51.460;7.150;2022-07-05T12:04:54;24.00;80.90
2929;DHT22;1474;51.460;7.150;2022-07-05T12:07:35;24.20;82.50
2929;DHT22;1474;51.460;7.150;2022-07-05T12:10:02;24.60;77.90
2929;DHT22;1474;51.460;7.150;2022-07-05T12:12:47;24.80;80.00
2929;DHT22;1474;51.460;7.150;2022-07-05T12:15:13;25.00;77.60
2929;DHT22;1474;51.460;7.150;2022-07-05T12:17:44;25.30;79.70
2929;DHT22;1474;51.460;7.150;2022-07-05T12:20:15;25.30;77.20
2929;DHT22;1474;51.460;7.150;2022-07-05T12:22:45;25.60;75.10
2929;DHT22;1474;51.460;7.150;2022-07-05T12:25:24;25.60;76.00
2929;DHT22;1474;51.460;7.150;2022-07-05T12:27:52;25.40;76.20
2929;DHT22;1474;51.460;7.150;2022-07-05T12:30:19;25.60;77.80
2929;DHT22;1474;51.460;7.150;2022-07-05T12:33:07;25.70;75.20
2929;DHT22;1474;51.460;7.150;2022-07-05T12:35:43;25.50;75.30
2929;DHT22;1474;51.460;7.150;2022-07-05T12:38:14;25.00;76.30
2929;DHT22;1474;51.460;7.150;2022-07-05T12:40:46;24.90;75.00
2929;DHT22;1474;51.460;7.150;2022-07-05T12:43:15;25.00;76.00
2929;DHT22;1474;51.460;7.150;2022-07-05T12:45:43;25.00;77.10
2929;DHT22;1474;51.460;7.150;2022-07-05T12:48:10;25.10;76.80
2929;DHT22;1474;51.460;7.150;2022-07-05T12:50:50;25.10;76.40
2929;DHT22;1474;51.460;7.150;2022-07-05T12:53:20;24.90;74.60
2929;DHT22;1474;51.460;7.150;2022-07-05T12:56:10;25.10;73.20
2929;DHT22;1474;51.460;7.150;2022-07-05T12:58:55;24.90;75.10
2929;DHT22;1474;51.460;7.150;2022-07-05T13:01:35;25.00;76.50
2929;DHT22;1474;51.460;7.150;2022-07-05T13:04:07;24.90;76.90
2929;DHT22;1474;51.460;7.150;2022-07-05T13:06:46;24.90;73.20
2929;DHT22;1474;51.460;7.150;2022-07-05T13:09:15;25.10;76.30
2929;DHT22;1474;51.460;7.150;2022-07-05T13:11:41;25.20;73.80
2929;DHT22;1474;51.460;7.150;2022-07-05T13:14:07;24.80;74.60
2929;DHT22;1474;51.460;7.150;2022-07-05T13:16:33;24.90;74.60
2929;DHT22;1474;51.460;7.150;2022-07-05T13:19:10;25.20;76.90
2929;DHT22;1474;51.460;7.150;2022-07-05T13:21:36;25.40;76.40
2929;DHT22;1474;51.460;7.150;2022-07-05T13:24:03;25.60;74.30
2929;DHT22;1474;51.460;7.150;2022-07-05T13:26:29;25.60;75.30
2929;DHT22;1474;51.460;7.150;2022-07-05T13:28:55;25.90;74.50
2929;DHT22;1474;51.460;7.150;2022-07-05T13:31:21;26.20;75.00
2929;DHT22;1474;51.460;7.150;2022-07-05T13:33:47;26.50;73.60
2929;DHT22;1474;51.460;7.150;2022-07-05T13:36:12;26.50;73.90
2929;DHT22;1474;51.460;7.150;2022-07-05T13:38:38;26.30;74.10
2929;DHT22;1474;51.460;7.150;2022-07-05T13:41:04;26.20;74.80
2929;DHT22;1474;51.460;7.150;2022-07-05T13:43:29;26.10;72.40
2929;DHT22;1474;51.460;7.150;2022-07-05T13:45:55;26.10;77.20
2929;DHT22;1474;51.460;7.150;2022-07-05T13:48:20;25.80;74.10
2929;DHT22;1474;51.460;7.150;2022-07-05T13:50:46;25.60;74.00
2929;DHT22;1474;51.460;7.150;2022-07-05T13:53:12;25.50;74.50
2929;DHT22;1474;51.460;7.150;2022-07-05T13:55:38;25.30;75.20
2929;DHT22;1474;51.460;7.150;2022-07-05T13:58:04;25.60;75.20
2929;DHT22;1474;51.460;7.150;2022-07-05T14:00:29;25.90;75.60
2929;DHT22;1474;51.460;7.150;2022-07-05T14:02:55;26.20;75.00
2929;DHT22;1474;51.460;7.150;2022-07-05T14:05:21;26.40;76.20
2929;DHT22;1474;51.460;7.150;2022-07-05T14:07:49;26.20;74.60
2929;DHT22;1474;51.460;7.150;2022-07-05T14:10:15;25.70;73.40
2929;DHT22;1474;51.460;7.150;2022-07-05T14:12:41;25.40;74.30
2929;DHT22;1474;51.460;7.150;2022-07-05T14:15:07;25.30;75.40
2929;DHT22;1474;51.460;7.150;2022-07-05T14:17:33;25.50;75.80
2929;DHT22;1474;51.460;7.150;2022-07-05T14:19:59;25.70;75.30
2929;DHT22;1474;51.460;7.150;2022-07-05T14:22:24;25.80;75.20
2929;DHT22;1474;51.460;7.150;2022-07-05T14:24:50;25.70;75.30
2929;DHT22;1474;51.460;7.150;2022-07-05T14:27:16;25.70;75.00
2929;DHT22;1474;51.460;7.150;2022-07-05T14:29:41;25.60;76.80
2929;DHT22;1474;51.460;7.150;2022-07-05T14:32:07;25.50;75.50
2929;DHT22;1474;51.460;7.150;2022-07-05T14:34:33;25.00;75.80
2929;DHT22;1474;51.460;7.150;2022-07-05T14:36:59;24.60;77.30
2929;DHT22;1474;51.460;7.150;2022-07-05T14:39:25;24.50;76.80
2929;DHT22;1474;51.460;7.150;2022-07-05T14:41:51;24.40;78.40
2929;DHT22;1474;51.460;7.150;2022-07-05T14:44:17;24.30;77.60
2929;DHT22;1474;51.460;7.150;2022-07-05T14:46:42;24.10;78.50
2929;DHT22;1474;51.460;7.150;2022-07-05T14:49:08;23.80;78.00
2929;DHT22;1474;51.460;7.150;2022-07-05T14:51:34;23.70;78.40
2929;DHT22;1474;51.460;7.150;2022-07-05T14:53:59;23.60;80.10
2929;DHT22;1474;51.460;7.150;2022-07-05T14:56:25;23.60;80.50
2929;DHT22;1474;51.460;7.150;2022-07-05T14:58:51;23.50;79.60
2929;DHT22;1474;51.460;7.150;2022-07-05T15:01:16;23.40;80.80
2929;DHT22;1474;51.460;7.150;2022-07-05T15:03:43;23.50;80.80
2929;DHT22;1474;51.460;7.150;2022-07-05T15:06:09;23.40;82.20
2929;DHT22;1474;51.460;7.150;2022-07-05T15:08:37;23.40;81.20
2929;DHT22;1474;51.460;7.150;2022-07-05T15:11:03;23.30;81.60
2929;DHT22;1474;51.460;7.150;2022-07-05T15:13:30;23.30;81.20
2929;DHT22;1474;51.460;7.150;2022-07-05T15:15:56;23.20;81.60
2929;DHT22;1474;51.460;7.150;2022-07-05T15:18:23;23.30;82.60
2929;DHT22;1474;51.460;7.150;2022-07-05T15:20:49;23.40;82.70
2929;DHT22;1474;51.460;7.150;2022-07-05T15:23:17;23.50;82.80
2929;DHT22;1474;51.460;7.150;2022-07-05T15:25:42;23.50;82.20
2929;DHT22;1474;51.460;7.150;2022-07-05T15:28:09;23.60;83.00
2929;DHT22;1474;51.460;7.150;2022-07-05T15:30:37;23.70;83.30
2929;DHT22;1474;51.460;7.150;2022-07-05T15:33:03;23.40;82.30
2929;DHT22;1474;51.460;7.150;2022-07-05T15:35:29;23.30;83.20
2929;DHT22;1474;51.460;7.150;2022-07-05T15:37:55;23.40;83.70
2929;DHT22;1474;51.460;7.150;2022-07-05T15:40:20;23.30;83.40
2929;DHT22;1474;51.460;7.150;2022-07-05T15:42:46;23.20;83.30
2929;DHT22;1474;51.460;7.150;2022-07-05T15:45:12;23.20;84.20
2929;DHT22;1474;51.460;7.150;2022-07-05T15:47:38;22.90;83.30
2929;DHT22;1474;51.460;7.150;2022-07-05T15:50:08;22.80;83.60
2929;DHT22;1474;51.460;7.150;2022-07-05T15:52:36;22.90;84.50
2929;DHT22;1474;51.460;7.150;2022-07-05T15:55:03;22.80;84.60
2929;DHT22;1474;51.460;7.150;2022-07-05T15:57:29;22.80;85.40
2929;DHT22;1474;51.460;7.150;2022-07-05T15:59:55;22.70;85.70
2929;DHT22;1474;51.460;7.150;2022-07-05T16:02:22;22.80;84.60
2929;DHT22;1474;51.460;7.150;2022-07-05T16:04:49;22.80;84.60
2929;DHT22;1474;51.460;7.150;2022-07-05T16:07:15;22.80;84.50
2929;DHT22;1474;51.460;7.150;2022-07-05T16:09:40;22.90;83.50
2929;DHT22;1474;51.460;7.150;2022-07-05T16:12:06;22.80;84.20
2929;DHT22;1474;51.460;7.150;2022-07-05T16:14:33;22.70;82.90
2929;DHT22;1474;51.460;7.150;2022-07-05T16:16:59;22.60;82.60
2929;DHT22;1474;51.460;7.150;2022-07-05T16:19:25;22.60;82.80
2929;DHT22;1474;51.460;7.150;2022-07-05T16:21:51;22.50;83.80
2929;DHT22;1474;51.460;7.150;2022-07-05T16:24:18;22.40;85.00
2929;DHT22;1474;51.460;7.150;2022-07-05T16:26:45;22.30;84.00
2929;DHT22;1474;51.460;7.150;2022-07-05T16:29:10;22.30;84.90
2929;DHT22;1474;51.460;7.150;2022-07-05T16:31:36;22.50;85.30
2929;DHT22;1474;51.460;7.150;2022-07-05T16:34:02;22.50;85.70